createdAt,value
2023-05-01T00:00:24.497Z,94315.00
2023-05-01T00:01:24.456Z,94313.00
2023-05-01T00:02:24.578Z,94313.00
2023-05-01T00:03:24.603Z,94311.00
2023-05-01T00:04:24.469Z,94311.00
2023-05-01T00:05:24.478Z,94311.00
2023-05-01T00:06:24.587Z,94308.00
2023-05-01T00:07:26.424Z,94309.00
2023-05-01T00:08:25.479Z,94308.00
2023-05-01T00:09:24.524Z,94311.00
2023-05-01T00:10:24.537Z,94309.00
2023-05-01T00:11:24.568Z,94309.00
2023-05-01T00:12:24.566Z,94309.00
2023-05-01T00:13:24.563Z,94306.00
2023-05-01T00:14:24.598Z,94308.00
2023-05-01T00:15:24.604Z,94308.00
2023-05-01T00:16:24.679Z,94306.00
2023-05-01T00:17:24.629Z,94308.00
2023-05-01T00:18:24.597Z,94306.00
2023-05-01T00:19:24.558Z,94308.00
2023-05-01T00:20:24.569Z,94308.00
2023-05-01T00:21:24.563Z,94304.00
2023-05-01T00:22:24.599Z,94306.00
2023-05-01T00:23:24.558Z,94304.00
2023-05-01T00:24:24.566Z,94304.00
2023-05-01T00:25:24.545Z,94302.00
2023-05-01T00:26:24.543Z,94302.00
2023-05-01T00:27:24.553Z,94302.00
2023-05-01T00:28:25.454Z,94302.00
2023-05-01T00:29:24.547Z,94300.00
2023-05-01T00:30:24.544Z,94302.00
2023-05-01T00:31:24.542Z,94302.00
2023-05-01T00:32:24.600Z,94302.00
2023-05-01T00:33:24.513Z,94302.00
2023-05-01T00:34:24.464Z,94300.00
2023-05-01T00:35:24.498Z,94300.00
2023-05-01T00:36:24.511Z,94300.00
2023-05-01T00:37:24.468Z,94300.00
2023-05-01T00:38:24.462Z,94300.00
2023-05-01T00:39:24.442Z,94298.00
2023-05-01T00:40:24.477Z,94296.00
2023-05-01T00:41:24.440Z,94296.00
2023-05-01T00:42:24.437Z,94298.00
2023-05-01T00:43:24.425Z,94296.00
2023-05-01T00:44:24.434Z,94298.00
2023-05-01T00:45:24.416Z,94294.00
2023-05-01T00:46:24.521Z,94296.00
2023-05-01T00:47:24.517Z,94298.00
2023-05-01T00:48:24.410Z,94296.00
2023-05-01T00:49:24.460Z,94294.00
2023-05-01T00:50:24.368Z,94296.00
2023-05-01T00:51:24.368Z,94292.00
2023-05-01T00:52:24.370Z,94296.00
2023-05-01T00:53:24.344Z,94294.00
2023-05-01T00:54:24.340Z,94294.00
2023-05-01T00:55:24.368Z,94292.00
2023-05-01T00:56:24.411Z,94290.00
2023-05-01T00:57:24.338Z,94288.00
2023-05-01T00:58:24.312Z,94288.00
2023-05-01T00:59:24.321Z,94288.00
2023-05-01T01:00:24.331Z,94290.00
2023-05-01T01:01:24.408Z,94288.00
2023-05-01T01:02:24.410Z,94288.00
2023-05-01T01:03:24.281Z,94282.00
2023-05-01T01:04:24.360Z,94282.00
2023-05-01T01:05:24.987Z,94288.00
2023-05-01T01:06:25.558Z,94284.00
2023-05-01T01:07:24.459Z,94288.00
2023-05-01T01:08:24.434Z,94286.00
2023-05-01T01:09:24.444Z,94288.00
2023-05-01T01:10:24.502Z,94288.00
2023-05-01T01:11:24.434Z,94286.00
2023-05-01T01:12:24.471Z,94290.00
2023-05-01T01:13:24.987Z,94288.00
2023-05-01T01:14:24.439Z,94290.00
2023-05-01T01:15:24.442Z,94284.00
2023-05-01T01:16:24.455Z,94290.00
2023-05-01T01:17:24.465Z,94284.00
2023-05-01T01:18:24.436Z,94282.00
2023-05-01T01:19:24.423Z,94282.00
2023-05-01T01:20:24.436Z,94278.00
2023-05-01T01:21:24.946Z,94282.00
2023-05-01T01:22:24.443Z,94278.00
2023-05-01T01:23:24.437Z,94278.00
2023-05-01T01:24:24.435Z,94274.00
2023-05-01T01:25:24.423Z,94276.00
2023-05-01T01:26:24.410Z,94274.00
2023-05-01T01:27:24.429Z,94274.00
2023-05-01T01:28:24.381Z,94274.00
2023-05-01T01:29:24.369Z,94274.00
2023-05-01T01:30:24.386Z,94272.00
2023-05-01T01:31:24.473Z,94272.00
2023-05-01T01:32:24.478Z,94270.00
2023-05-01T01:33:24.431Z,94266.00
2023-05-01T01:34:24.359Z,94270.00
2023-05-01T01:35:24.399Z,94268.00
2023-05-01T01:36:24.361Z,94268.00
2023-05-01T01:37:24.408Z,94270.00
2023-05-01T01:38:24.333Z,94272.00
2023-05-01T01:39:24.334Z,94270.00
2023-05-01T01:40:24.326Z,94270.00
2023-05-01T01:41:24.313Z,94270.00
2023-05-01T01:42:24.295Z,94266.00
2023-05-01T01:43:24.303Z,94268.00
2023-05-01T01:44:24.278Z,94266.00
2023-05-01T01:45:24.309Z,94268.00
2023-05-01T01:46:24.445Z,94266.00
2023-05-01T01:47:24.313Z,94266.00
2023-05-01T01:48:24.273Z,94266.00
2023-05-01T01:49:24.289Z,94266.00
2023-05-01T01:50:24.255Z,94266.00
2023-05-01T01:51:24.288Z,94264.00
2023-05-01T01:52:24.274Z,94262.00
2023-05-01T01:53:24.245Z,94264.00
2023-05-01T01:54:24.226Z,94262.00
2023-05-01T01:55:24.259Z,94262.00
2023-05-01T01:56:24.221Z,94262.00
2023-05-01T01:57:24.223Z,94259.00
2023-05-01T01:58:24.212Z,94261.00
2023-05-01T01:59:24.211Z,94257.00
2023-05-01T02:00:24.184Z,94257.00
2023-05-01T02:01:24.251Z,94257.00
2023-05-01T02:02:24.210Z,94255.00
2023-05-01T02:03:24.258Z,94255.00
2023-05-01T02:04:24.243Z,94253.00
2023-05-01T02:05:24.312Z,94255.00
2023-05-01T02:06:24.284Z,94255.00
2023-05-01T02:07:24.285Z,94253.00
2023-05-01T02:08:24.218Z,94255.00
2023-05-01T02:09:24.215Z,94253.00
2023-05-01T02:10:24.195Z,94253.00
2023-05-01T02:11:26.043Z,94251.00
2023-05-01T02:12:24.206Z,94253.00
2023-05-01T02:13:24.217Z,94251.00
2023-05-01T02:14:24.184Z,94251.00
2023-05-01T02:15:24.177Z,94251.00
2023-05-01T02:16:24.230Z,94251.00
2023-05-01T02:17:24.161Z,94251.00
2023-05-01T02:18:24.181Z,94251.00
2023-05-01T02:19:24.160Z,94251.00
2023-05-01T02:20:24.147Z,94249.00
2023-05-01T02:21:24.126Z,94247.00
2023-05-01T02:22:24.116Z,94247.00
2023-05-01T02:23:24.116Z,94247.00
2023-05-01T02:24:24.121Z,94245.00
2023-05-01T02:25:24.110Z,94245.00
2023-05-01T02:26:24.184Z,94241.00
2023-05-01T02:27:24.182Z,94243.00
2023-05-01T02:28:24.200Z,94237.00
2023-05-01T02:29:24.169Z,94235.00
2023-05-01T02:30:24.198Z,94235.00
2023-05-01T02:31:24.289Z,94235.00
2023-05-01T02:32:25.035Z,94237.00
2023-05-01T02:33:24.297Z,94235.00
2023-05-01T02:34:24.328Z,94233.00
2023-05-01T02:35:24.354Z,94231.00
2023-05-01T02:36:24.389Z,94231.00
2023-05-01T02:37:24.420Z,94231.00
2023-05-01T02:38:24.428Z,94231.00
2023-05-01T02:39:24.504Z,94231.00
2023-05-01T02:40:26.557Z,94229.00
2023-05-01T02:41:24.522Z,94227.00
2023-05-01T02:42:24.554Z,94227.00
2023-05-01T02:43:24.583Z,94225.00
2023-05-01T02:44:24.618Z,94223.00
2023-05-01T02:45:24.713Z,94225.00
2023-05-01T02:46:24.761Z,94225.00
2023-05-01T02:47:24.798Z,94223.00
2023-05-01T02:48:24.701Z,94221.00
2023-05-01T02:49:24.741Z,94223.00
2023-05-01T02:50:24.762Z,94221.00
2023-05-01T02:51:37.080Z,94223.00
2023-05-01T02:52:55.864Z,94223.00
2023-05-01T02:53:53.330Z,94219.00
2023-05-01T02:54:53.785Z,94219.00
2023-05-01T02:55:54.035Z,94219.00
2023-05-01T02:56:58.738Z,94219.00
2023-05-01T02:57:56.734Z,94217.00
2023-05-01T02:58:59.269Z,94215.00
2023-05-01T03:00:14.879Z,94215.00
2023-05-01T03:03:52.931Z,94214.00
2023-05-01T03:05:12.293Z,94215.00
2023-05-01T03:06:12.888Z,94215.00
2023-05-01T03:07:14.699Z,94214.00
2023-05-01T03:08:14.097Z,94214.00
2023-05-01T03:09:12.130Z,94215.00
2023-05-01T03:10:11.815Z,94214.00
2023-05-01T03:12:29.854Z,94215.00
2023-05-01T03:13:31.691Z,94212.00
2023-05-01T03:14:47.897Z,94214.00
2023-05-01T03:15:50.415Z,94212.00
2023-05-01T03:18:09.966Z,94214.00
2023-05-01T03:19:08.675Z,94212.00
2023-05-01T03:20:06.683Z,94212.00
2023-05-01T03:21:08.930Z,94210.00
2023-05-01T03:22:09.933Z,94210.00
2023-05-01T03:24:25.878Z,94206.00
2023-05-01T03:25:24.238Z,94204.00
2023-05-01T03:26:27.203Z,94206.00
2023-05-01T03:27:26.383Z,94202.00
2023-05-01T03:28:29.443Z,94204.00
2023-05-01T03:29:27.956Z,94204.00
2023-05-01T03:30:28.197Z,94206.00
2023-05-01T03:31:27.921Z,94202.00
2023-05-01T03:32:27.161Z,94204.00
2023-05-01T03:33:49.568Z,94204.00
2023-05-01T03:34:49.600Z,94202.00
2023-05-01T03:35:45.977Z,94202.00
2023-05-01T03:37:04.013Z,94204.00
2023-05-01T03:38:06.134Z,94204.00
2023-05-01T03:39:06.775Z,94204.00
2023-05-01T03:40:05.826Z,94204.00
2023-05-01T03:41:03.756Z,94202.00
2023-05-01T03:42:07.015Z,94202.00
2023-05-01T03:43:08.787Z,94204.00
2023-05-01T03:44:03.948Z,94202.00
2023-05-01T03:45:06.805Z,94204.00
2023-05-01T03:46:02.361Z,94202.00
2023-05-01T03:48:27.938Z,94198.00
2023-05-01T03:49:45.398Z,94198.00
2023-05-01T03:50:47.327Z,94198.00
2023-05-01T03:51:44.445Z,94198.00
2023-05-01T03:52:41.704Z,94196.00
2023-05-01T03:54:51.331Z,94200.00
2023-05-01T03:56:03.965Z,94200.00
2023-05-01T03:57:01.341Z,94200.00
2023-05-01T03:57:50.825Z,94200.00
2023-05-01T03:59:01.909Z,94200.00
2023-05-01T04:00:24.510Z,94198.00
2023-05-01T04:01:24.032Z,94198.00
2023-05-01T04:02:18.550Z,94196.00
2023-05-01T04:03:21.978Z,94198.00
2023-05-01T04:04:21.899Z,94196.00
2023-05-01T04:05:20.829Z,94198.00
2023-05-01T04:06:09.762Z,94196.00
2023-05-01T04:07:12.667Z,94192.00
2023-05-01T04:08:09.734Z,94194.00
2023-05-01T04:09:09.755Z,94192.00
2023-05-01T04:10:09.711Z,94194.00
2023-05-01T04:11:09.707Z,94192.00
2023-05-01T04:12:09.691Z,94192.00
2023-05-01T04:13:09.685Z,94192.00
2023-05-01T04:14:09.684Z,94192.00
2023-05-01T04:15:09.703Z,94190.00
2023-05-01T04:16:09.715Z,94190.00
2023-05-01T04:17:09.694Z,94190.00
2023-05-01T04:18:09.700Z,94190.00
2023-05-01T04:19:09.673Z,94188.00
2023-05-01T04:20:09.656Z,94190.00
2023-05-01T04:21:09.654Z,94188.00
2023-05-01T04:22:09.642Z,94188.00
2023-05-01T04:23:09.682Z,94188.00
2023-05-01T04:24:09.616Z,94188.00
2023-05-01T04:25:09.600Z,94188.00
2023-05-01T04:26:11.148Z,94186.00
2023-05-01T04:27:09.605Z,94188.00
2023-05-01T04:28:09.571Z,94188.00
2023-05-01T04:29:09.563Z,94190.00
2023-05-01T04:30:09.580Z,94190.00
2023-05-01T04:31:09.624Z,94190.00
2023-05-01T04:32:09.601Z,94190.00
2023-05-01T04:33:09.774Z,94190.00
2023-05-01T04:34:09.618Z,94192.00
2023-05-01T04:35:10.113Z,94192.00
2023-05-01T04:36:09.536Z,94190.00
2023-05-01T04:37:09.549Z,94190.00
2023-05-01T04:38:09.585Z,94190.00
2023-05-01T04:39:09.497Z,94188.00
2023-05-01T04:40:13.760Z,94192.00
2023-05-01T04:41:09.503Z,94190.00
2023-05-01T04:42:09.565Z,94194.00
2023-05-01T04:43:09.529Z,94192.00
2023-05-01T04:44:09.474Z,94192.00
2023-05-01T04:45:09.512Z,94190.00
2023-05-01T04:46:09.509Z,94190.00
2023-05-01T04:47:09.544Z,94192.00
2023-05-01T04:48:09.540Z,94192.00
2023-05-01T04:49:09.446Z,94194.00
2023-05-01T04:50:09.445Z,94190.00
2023-05-01T04:51:09.454Z,94192.00
2023-05-01T04:52:09.452Z,94190.00
2023-05-01T04:53:09.398Z,94192.00
2023-05-01T04:54:09.464Z,94196.00
2023-05-01T04:55:09.394Z,94194.00
2023-05-01T04:56:09.399Z,94192.00
2023-05-01T04:57:09.419Z,94190.00
2023-05-01T04:58:09.544Z,94190.00
2023-05-01T04:59:09.533Z,94190.00
2023-05-01T05:00:09.654Z,94192.00
2023-05-01T05:01:09.700Z,94192.00
2023-05-01T05:02:09.681Z,94190.00
2023-05-01T05:03:09.840Z,94190.00
2023-05-01T05:04:09.881Z,94190.00
2023-05-01T05:05:09.837Z,94192.00
2023-05-01T05:06:09.989Z,94188.00
2023-05-01T05:07:09.949Z,94192.00
2023-05-01T05:08:09.998Z,94192.00
2023-05-01T05:09:10.028Z,94190.00
2023-05-01T05:10:10.073Z,94190.00
2023-05-01T05:11:10.089Z,94188.00
2023-05-01T05:12:10.068Z,94190.00
2023-05-01T05:13:10.089Z,94190.00
2023-05-01T05:14:10.032Z,94188.00
2023-05-01T05:15:10.058Z,94190.00
2023-05-01T05:16:10.076Z,94188.00
2023-05-01T05:17:10.028Z,94190.00
2023-05-01T05:18:10.065Z,94192.00
2023-05-01T05:19:10.059Z,94192.00
2023-05-01T05:20:10.026Z,94188.00
2023-05-01T05:21:10.033Z,94190.00
2023-05-01T05:22:25.654Z,94190.00
2023-05-01T05:23:23.123Z,94188.00
2023-05-01T05:24:23.118Z,94186.00
2023-05-01T05:25:10.029Z,94188.00
2023-05-01T05:26:10.673Z,94184.00
2023-05-01T05:27:10.055Z,94186.00
2023-05-01T05:28:10.060Z,94188.00
2023-05-01T05:29:10.009Z,94184.00
2023-05-01T05:30:10.000Z,94184.00
2023-05-01T05:31:09.985Z,94188.00
2023-05-01T05:32:10.054Z,94188.00
2023-05-01T05:33:10.017Z,94188.00
2023-05-01T05:34:09.966Z,94188.00
2023-05-01T05:35:09.983Z,94188.00
2023-05-01T05:36:10.008Z,94186.00
2023-05-01T05:37:10.722Z,94188.00
2023-05-01T05:38:09.948Z,94186.00
2023-05-01T05:39:09.949Z,94184.00
2023-05-01T05:40:09.931Z,94186.00
2023-05-01T05:41:09.972Z,94186.00
2023-05-01T05:42:09.920Z,94188.00
2023-05-01T05:43:09.907Z,94188.00
2023-05-01T05:44:09.900Z,94192.00
2023-05-01T05:45:09.929Z,94192.00
2023-05-01T05:46:09.927Z,94192.00
2023-05-01T05:47:09.882Z,94192.00
2023-05-01T05:48:09.981Z,94190.00
2023-05-01T05:49:09.887Z,94192.00
2023-05-01T05:50:09.954Z,94190.00
2023-05-01T05:51:09.903Z,94190.00
2023-05-01T05:52:09.861Z,94192.00
2023-05-01T05:53:09.875Z,94190.00
2023-05-01T05:54:09.855Z,94192.00
2023-05-01T05:55:09.833Z,94190.00
2023-05-01T05:56:09.827Z,94192.00
2023-05-01T05:57:09.834Z,94192.00
2023-05-01T05:58:09.831Z,94190.00
2023-05-01T05:59:09.909Z,94194.00
2023-05-01T06:00:09.949Z,94192.00
2023-05-01T06:01:12.695Z,94190.00
2023-05-01T06:02:09.999Z,94192.00
2023-05-01T06:03:09.994Z,94194.00
2023-05-01T06:04:09.920Z,94188.00
2023-05-01T06:05:09.961Z,94190.00
2023-05-01T06:06:10.220Z,94192.00
2023-05-01T06:07:09.896Z,94190.00
2023-05-01T06:08:09.887Z,94192.00
2023-05-01T06:09:09.879Z,94192.00
2023-05-01T06:10:09.864Z,94190.00
2023-05-01T06:11:09.854Z,94188.00
2023-05-01T06:12:09.895Z,94188.00
2023-05-01T06:13:13.450Z,94188.00
2023-05-01T06:14:09.946Z,94188.00
2023-05-01T06:15:09.927Z,94188.00
2023-05-01T06:16:10.004Z,94190.00
2023-05-01T06:17:10.265Z,94188.00
2023-05-01T06:18:09.968Z,94186.00
2023-05-01T06:19:09.903Z,94188.00
2023-05-01T06:20:10.736Z,94186.00
2023-05-01T06:21:09.880Z,94186.00
2023-05-01T06:22:09.943Z,94184.00
2023-05-01T06:23:09.965Z,94182.00
2023-05-01T06:24:10.094Z,94184.00
2023-05-01T06:25:10.084Z,94182.00
2023-05-01T06:26:10.117Z,94180.00
2023-05-01T06:27:10.236Z,94180.00
2023-05-01T06:28:10.255Z,94182.00
2023-05-01T06:29:10.338Z,94180.00
2023-05-01T06:30:10.370Z,94182.00
2023-05-01T06:31:10.516Z,94180.00
2023-05-01T06:32:10.483Z,94180.00
2023-05-01T06:33:10.585Z,94180.00
2023-05-01T06:34:10.596Z,94180.00
2023-05-01T06:35:10.650Z,94178.00
2023-05-01T06:36:10.692Z,94178.00
2023-05-01T06:37:10.773Z,94178.00
2023-05-01T06:38:10.816Z,94178.00
2023-05-01T06:39:10.861Z,94178.00
2023-05-01T06:40:11.707Z,94178.00
2023-05-01T06:41:10.953Z,94178.00
2023-05-01T06:42:10.996Z,94178.00
2023-05-01T06:43:11.050Z,94176.00
2023-05-01T06:44:11.123Z,94176.00
2023-05-01T06:45:11.197Z,94174.00
2023-05-01T06:46:12.258Z,94178.00
2023-05-01T06:47:11.512Z,94178.00
2023-05-01T06:48:11.382Z,94174.00
2023-05-01T06:49:11.424Z,94176.00
2023-05-01T06:50:11.492Z,94176.00
2023-05-01T06:51:11.534Z,94178.00
2023-05-01T06:52:11.613Z,94178.00
2023-05-01T06:53:11.646Z,94178.00
2023-05-01T06:54:11.706Z,94176.00
2023-05-01T06:55:11.756Z,94176.00
2023-05-01T06:56:11.832Z,94176.00
2023-05-01T06:57:11.883Z,94176.00
2023-05-01T06:58:22.384Z,94176.00
2023-05-01T06:59:12.913Z,94178.00
2023-05-01T07:00:11.908Z,94178.00
2023-05-01T07:01:11.956Z,94178.00
2023-05-01T07:02:11.968Z,94178.00
2023-05-01T07:03:11.942Z,94176.00
2023-05-01T07:04:11.915Z,94178.00
2023-05-01T07:05:11.883Z,94176.00
2023-05-01T07:06:11.999Z,94180.00
2023-05-01T07:07:11.892Z,94180.00
2023-05-01T07:08:11.903Z,94178.00
2023-05-01T07:09:11.911Z,94178.00
2023-05-01T07:10:12.023Z,94178.00
2023-05-01T07:11:12.025Z,94178.00
2023-05-01T07:12:12.059Z,94178.00
2023-05-01T07:13:12.138Z,94180.00
2023-05-01T07:14:12.203Z,94174.00
2023-05-01T07:15:12.244Z,94174.00
2023-05-01T07:16:12.356Z,94174.00
2023-05-01T07:17:12.367Z,94176.00
2023-05-01T07:18:12.519Z,94172.00
2023-05-01T07:19:12.524Z,94170.00
2023-05-01T07:20:13.329Z,94174.00
2023-05-01T07:21:12.592Z,94170.00
2023-05-01T07:22:12.650Z,94172.00
2023-05-01T07:23:12.696Z,94172.00
2023-05-01T07:24:12.734Z,94174.00
2023-05-01T07:25:12.818Z,94172.00
2023-05-01T07:26:12.901Z,94174.00
2023-05-01T07:27:12.914Z,94174.00
2023-05-01T07:28:13.024Z,94174.00
2023-05-01T07:29:13.030Z,94178.00
2023-05-01T07:30:13.098Z,94176.00
2023-05-01T07:31:13.120Z,94176.00
2023-05-01T07:32:13.386Z,94174.00
2023-05-01T07:33:13.387Z,94176.00
2023-05-01T07:34:13.285Z,94174.00
2023-05-01T07:35:13.335Z,94174.00
2023-05-01T07:36:13.405Z,94176.00
2023-05-01T07:37:13.448Z,94172.00
2023-05-01T07:38:13.494Z,94172.00
2023-05-01T07:39:13.574Z,94174.00
2023-05-01T07:40:13.634Z,94176.00
2023-05-01T07:41:13.675Z,94174.00
2023-05-01T07:42:13.785Z,94174.00
2023-05-01T07:43:13.762Z,94174.00
2023-05-01T07:44:13.807Z,94174.00
2023-05-01T07:45:13.869Z,94176.00
2023-05-01T07:46:13.967Z,94174.00
2023-05-01T07:47:13.972Z,94176.00
2023-05-01T07:48:14.032Z,94176.00
2023-05-01T07:49:14.004Z,94178.00
2023-05-01T07:50:13.951Z,94176.00
2023-05-01T07:51:13.926Z,94174.00
2023-05-01T07:52:13.955Z,94176.00
2023-05-01T07:53:13.901Z,94174.00
2023-05-01T07:54:13.959Z,94174.00
2023-05-01T07:55:13.912Z,94172.00
2023-05-01T07:56:13.914Z,94174.00
2023-05-01T07:57:13.892Z,94172.00
2023-05-01T07:58:13.903Z,94172.00
2023-05-01T07:59:13.966Z,94170.00
2023-05-01T08:00:14.041Z,94172.00
2023-05-01T08:01:14.095Z,94170.00
2023-05-01T08:02:14.200Z,94174.00
2023-05-01T08:03:14.295Z,94174.00
2023-05-01T08:04:14.325Z,94174.00
2023-05-01T08:05:14.273Z,94174.00
2023-05-01T08:06:14.407Z,94172.00
2023-05-01T08:07:14.381Z,94170.00
2023-05-01T08:08:14.461Z,94174.00
2023-05-01T08:09:14.459Z,94172.00
2023-05-01T08:10:16.286Z,94172.00
2023-05-01T08:11:14.579Z,94172.00
2023-05-01T08:12:14.646Z,94172.00
2023-05-01T08:13:14.691Z,94172.00
2023-05-01T08:14:14.734Z,94170.00
2023-05-01T08:15:14.814Z,94172.00
2023-05-01T08:16:14.888Z,94172.00
2023-05-01T08:17:14.962Z,94172.00
2023-05-01T08:18:14.966Z,94172.00
2023-05-01T08:19:15.019Z,94172.00
2023-05-01T08:20:15.061Z,94172.00
2023-05-01T08:21:15.164Z,94172.00
2023-05-01T08:22:15.159Z,94172.00
2023-05-01T08:23:15.209Z,94170.00
2023-05-01T08:24:15.261Z,94172.00
2023-05-01T08:25:15.273Z,94170.00
2023-05-01T08:26:15.311Z,94172.00
2023-05-01T08:27:15.222Z,94170.00
2023-05-01T08:28:15.233Z,94168.00
2023-05-01T08:29:15.264Z,94168.00
2023-05-01T08:30:15.236Z,94168.00
2023-05-01T08:31:15.285Z,94167.00
2023-05-01T08:32:15.195Z,94165.00
2023-05-01T08:33:15.178Z,94163.00
2023-05-01T08:34:15.189Z,94167.00
2023-05-01T08:35:15.190Z,94163.00
2023-05-01T08:36:15.247Z,94165.00
2023-05-01T08:37:15.311Z,94161.00
2023-05-01T08:38:15.374Z,94161.00
2023-05-01T08:39:15.407Z,94161.00
2023-05-01T08:40:15.441Z,94161.00
2023-05-01T08:41:15.506Z,94159.00
2023-05-01T08:42:15.566Z,94157.00
2023-05-01T08:43:15.597Z,94157.00
2023-05-01T08:44:15.632Z,94157.00
2023-05-01T08:45:15.750Z,94157.00
2023-05-01T08:46:15.815Z,94157.00
2023-05-01T08:47:15.747Z,94155.00
2023-05-01T08:48:15.669Z,94153.00
2023-05-01T08:49:15.667Z,94157.00
2023-05-01T08:50:15.643Z,94155.00
2023-05-01T08:51:15.644Z,94155.00
2023-05-01T08:52:15.652Z,94155.00
2023-05-01T08:53:15.662Z,94153.00
2023-05-01T08:54:15.621Z,94153.00
2023-05-01T08:55:15.679Z,94149.00
2023-05-01T08:56:15.641Z,94149.00
2023-05-01T08:57:15.688Z,94149.00
2023-05-01T08:58:15.733Z,94151.00
2023-05-01T08:59:15.759Z,94149.00
2023-05-01T09:00:15.798Z,94147.00
2023-05-01T09:01:15.908Z,94149.00
2023-05-01T09:02:15.878Z,94151.00
2023-05-01T09:03:16.095Z,94149.00
2023-05-01T09:04:16.122Z,94149.00
2023-05-01T09:05:16.768Z,94147.00
2023-05-01T09:06:16.125Z,94147.00
2023-05-01T09:07:16.181Z,94145.00
2023-05-01T09:08:16.190Z,94143.00
2023-05-01T09:09:16.222Z,94145.00
2023-05-01T09:10:16.271Z,94143.00
2023-05-01T09:11:16.324Z,94141.00
2023-05-01T09:12:16.331Z,94139.00
2023-05-01T09:13:16.401Z,94139.00
2023-05-01T09:14:16.424Z,94139.00
2023-05-01T09:15:16.504Z,94137.00
2023-05-01T09:16:16.622Z,94139.00
2023-05-01T09:17:16.522Z,94137.00
2023-05-01T09:18:16.649Z,94137.00
2023-05-01T09:19:16.621Z,94135.00
2023-05-01T09:20:16.622Z,94135.00
2023-05-01T09:21:16.672Z,94131.00
2023-05-01T09:22:16.702Z,94133.00
2023-05-01T09:23:16.740Z,94131.00
2023-05-01T09:24:16.763Z,94131.00
2023-05-01T09:25:16.804Z,94127.00
2023-05-01T09:26:16.852Z,94129.00
2023-05-01T09:27:16.878Z,94129.00
2023-05-01T09:28:16.916Z,94127.00
2023-05-01T09:29:16.928Z,94127.00
2023-05-01T09:30:17.001Z,94127.00
2023-05-01T09:31:17.051Z,94125.00
2023-05-01T09:32:17.174Z,94123.00
2023-05-01T09:33:17.213Z,94121.00
2023-05-01T09:34:17.113Z,94114.00
2023-05-01T09:35:17.140Z,94112.00
2023-05-01T09:36:17.181Z,94112.00
2023-05-01T09:37:17.202Z,94110.00
2023-05-01T09:38:17.236Z,94108.00
2023-05-01T09:39:17.266Z,94106.00
2023-05-01T09:40:17.283Z,94104.00
2023-05-01T09:41:17.256Z,94102.00
2023-05-01T09:42:17.245Z,94106.00
2023-05-01T09:43:17.228Z,94106.00
2023-05-01T09:44:17.241Z,94104.00
2023-05-01T09:45:17.245Z,94104.00
2023-05-01T09:46:17.321Z,94098.00
2023-05-01T09:47:17.201Z,94100.00
2023-05-01T09:48:17.239Z,94100.00
2023-05-01T09:49:17.208Z,94098.00
2023-05-01T09:50:17.211Z,94096.00
2023-05-01T09:51:17.198Z,94096.00
2023-05-01T09:52:17.186Z,94096.00
2023-05-01T09:53:17.167Z,94094.00
2023-05-01T09:54:17.178Z,94092.00
2023-05-01T09:55:17.210Z,94092.00
2023-05-01T09:56:17.194Z,94092.00
2023-05-01T09:57:17.255Z,94086.00
2023-05-01T09:58:17.277Z,94086.00
2023-05-01T09:59:17.357Z,94086.00
2023-05-01T10:00:17.337Z,94082.00
2023-05-01T10:01:17.418Z,94084.00
2023-05-01T10:02:17.496Z,94078.00
2023-05-01T10:03:17.669Z,94080.00
2023-05-01T10:04:17.478Z,94078.00
2023-05-01T10:05:17.567Z,94074.00
2023-05-01T10:06:17.607Z,94074.00
2023-05-01T10:07:17.600Z,94070.00
2023-05-01T10:08:17.648Z,94070.00
2023-05-01T10:09:17.933Z,94067.00
2023-05-01T10:10:17.773Z,94065.00
2023-05-01T10:11:17.745Z,94067.00
2023-05-01T10:12:17.783Z,94063.00
2023-05-01T10:13:17.807Z,94065.00
2023-05-01T10:14:17.841Z,94061.00
2023-05-01T10:15:25.684Z,94061.00
2023-05-01T10:16:18.899Z,94059.00
2023-05-01T10:17:17.910Z,94059.00
2023-05-01T10:18:17.923Z,94061.00
2023-05-01T10:19:17.815Z,94059.00
2023-05-01T10:20:17.819Z,94061.00
2023-05-01T10:21:17.831Z,94059.00
2023-05-01T10:22:17.817Z,94057.00
2023-05-01T10:23:17.813Z,94059.00
2023-05-01T10:24:17.819Z,94059.00
2023-05-01T10:25:17.824Z,94057.00
2023-05-01T10:26:18.356Z,94057.00
2023-05-01T10:27:17.789Z,94057.00
2023-05-01T10:28:17.784Z,94057.00
2023-05-01T10:29:17.735Z,94055.00
2023-05-01T10:30:17.740Z,94055.00
2023-05-01T10:31:17.805Z,94059.00
2023-05-01T10:32:17.768Z,94055.00
2023-05-01T10:33:17.761Z,94055.00
2023-05-01T10:34:17.731Z,94053.00
2023-05-01T10:35:17.720Z,94055.00
2023-05-01T10:36:17.741Z,94053.00
2023-05-01T10:37:17.754Z,94051.00
2023-05-01T10:38:17.831Z,94047.00
2023-05-01T10:39:17.700Z,94049.00
2023-05-01T10:40:17.672Z,94049.00
2023-05-01T10:41:17.672Z,94047.00
2023-05-01T10:42:17.680Z,94045.00
2023-05-01T10:43:17.666Z,94043.00
2023-05-01T10:44:17.647Z,94043.00
2023-05-01T10:45:17.647Z,94039.00
2023-05-01T10:46:17.648Z,94037.00
2023-05-01T10:47:17.638Z,94033.00
2023-05-01T10:48:17.621Z,94031.00
2023-05-01T10:49:17.703Z,94033.00
2023-05-01T10:50:17.638Z,94029.00
2023-05-01T10:51:17.665Z,94029.00
2023-05-01T10:52:17.655Z,94029.00
2023-05-01T10:53:17.718Z,94025.00
2023-05-01T10:54:17.672Z,94025.00
2023-05-01T10:55:17.698Z,94023.00
2023-05-01T10:56:17.730Z,94021.00
2023-05-01T10:57:17.766Z,94021.00
2023-05-01T10:58:17.752Z,94018.00
2023-05-01T10:59:17.752Z,94020.00
2023-05-01T11:00:17.786Z,94016.00
2023-05-01T11:01:17.852Z,94014.00
2023-05-01T11:02:17.834Z,94014.00
2023-05-01T11:03:17.829Z,94012.00
2023-05-01T11:04:17.823Z,94010.00
2023-05-01T11:05:23.671Z,94016.00
2023-05-01T11:06:18.917Z,94010.00
2023-05-01T11:07:17.935Z,94008.00
2023-05-01T11:08:18.848Z,94010.00
2023-05-01T11:09:17.816Z,94006.00
2023-05-01T11:10:17.804Z,94006.00
2023-05-01T11:11:17.800Z,94002.00
2023-05-01T11:12:17.834Z,94006.00
2023-05-01T11:13:17.807Z,94006.00
2023-05-01T11:14:17.781Z,94000.00
2023-05-01T11:15:17.778Z,94002.00
2023-05-01T11:16:17.834Z,94004.00
2023-05-01T11:17:17.773Z,94004.00
2023-05-01T11:18:17.745Z,94000.00
2023-05-01T11:19:17.758Z,94000.00
2023-05-01T11:20:17.742Z,93998.00
2023-05-01T11:21:19.386Z,94000.00
2023-05-01T11:22:17.720Z,94002.00
2023-05-01T11:23:17.743Z,93998.00
2023-05-01T11:24:17.717Z,94000.00
2023-05-01T11:25:17.690Z,93998.00
2023-05-01T11:26:17.686Z,94000.00
2023-05-01T11:27:17.717Z,94000.00
2023-05-01T11:28:17.676Z,94000.00
2023-05-01T11:29:17.664Z,93998.00
2023-05-01T11:30:17.661Z,93998.00
2023-05-01T11:31:17.659Z,93996.00
2023-05-01T11:32:17.761Z,93996.00
2023-05-01T11:33:17.747Z,93994.00
2023-05-01T11:34:17.669Z,93994.00
2023-05-01T11:35:17.663Z,93992.00
2023-05-01T11:36:17.636Z,93990.00
2023-05-01T11:37:18.349Z,93988.00
2023-05-01T11:38:17.630Z,93990.00
2023-05-01T11:39:17.652Z,93990.00
2023-05-01T11:40:17.593Z,93986.00
2023-05-01T11:41:19.251Z,93986.00
2023-05-01T11:42:17.817Z,93984.00
2023-05-01T11:43:17.865Z,93984.00
2023-05-01T11:44:17.792Z,93984.00
2023-05-01T11:45:17.791Z,93984.00
2023-05-01T11:46:17.827Z,93982.00
2023-05-01T11:47:17.800Z,93980.00
2023-05-01T11:48:17.895Z,93978.00
2023-05-01T11:49:17.769Z,93978.00
2023-05-01T11:50:17.788Z,93978.00
2023-05-01T11:51:17.788Z,93976.00
2023-05-01T11:52:17.758Z,93980.00
2023-05-01T11:53:17.766Z,93978.00
2023-05-01T11:54:17.755Z,93978.00
2023-05-01T11:55:17.734Z,93978.00
2023-05-01T11:56:26.032Z,93978.00